sensor_id;sensor_type;location;lat;lon;timestamp;P1;durP1;ratioP1;P2;durP2;ratioP2
3939;SDS011;1984;48.312;9.244;2023-07-29T00:00:46;4.57;;;3.40;;
3939;SDS011;1984;48.312;9.244;2023-07-29T00:03:11;4.47;;;3.80;;
3939;SDS011;1984;48.312;9.244;2023-07-29T00:05:37;3.33;;;3.03;;
3939;SDS011;1984;48.312;9.244;2023-07-29T00:08:03;4.93;;;2.73;;
3939;SDS011;1984;48.312;9.244;2023-07-29T00:10:31;9.53;;;3.73;;
3939;SDS011;1984;48.312;9.244;2023-07-29T00:12:57;4.60;;;3.67;;
3939;SDS011;1984;48.312;9.244;2023-07-29T00:15:23;3.60;;;3.33;;
3939;SDS011;1984;48.312;9.244;2023-07-29T00:17:48;5.40;;;4.00;;
3939;SDS011;1984;48.312;9.244;2023-07-29T00:20:14;12.03;;;4.70;;
3939;SDS011;1984;48.312;9.244;2023-07-29T00:22:40;6.10;;;4.67;;
3939;SDS011;1984;48.312;9.244;2023-07-29T00:25:06;5.00;;;4.30;;
3939;SDS011;1984;48.312;9.244;2023-07-29T00:27:32;7.70;;;3.87;;
3939;SDS011;1984;48.312;9.244;2023-07-29T00:29:57;6.30;;;4.60;;
3939;SDS011;1984;48.312;9.244;2023-07-29T00:32:23;12.03;;;5.00;;
3939;SDS011;1984;48.312;9.244;2023-07-29T00:34:48;5.73;;;5.13;;
3939;SDS011;1984;48.312;9.244;2023-07-29T00:37:14;10.03;;;4.73;;
3939;SDS011;1984;48.312;9.244;2023-07-29T00:39:39;6.10;;;4.97;;
3939;SDS011;1984;48.312;9.244;2023-07-29T00:42:05;6.40;;;4.67;;
3939;SDS011;1984;48.312;9.244;2023-07-29T00:44:31;6.63;;;5.00;;
3939;SDS011;1984;48.312;9.244;2023-07-29T00:46:57;7.27;;;5.00;;
3939;SDS011;1984;48.312;9.244;2023-07-29T00:49:25;6.00;;;4.90;;
3939;SDS011;1984;48.312;9.244;2023-07-29T00:51:51;6.60;;;4.43;;
3939;SDS011;1984;48.312;9.244;2023-07-29T00:54:16;4.80;;;4.37;;
3939;SDS011;1984;48.312;9.244;2023-07-29T00:56:42;4.90;;;4.27;;
3939;SDS011;1984;48.312;9.244;2023-07-29T00:59:07;4.83;;;4.30;;
3939;SDS011;1984;48.312;9.244;2023-07-29T01:01:33;4.90;;;3.37;;
3939;SDS011;1984;48.312;9.244;2023-07-29T01:03:59;4.93;;;4.43;;
3939;SDS011;1984;48.312;9.244;2023-07-29T01:09:06;5.90;;;4.93;;
3939;SDS011;1984;48.312;9.244;2023-07-29T01:11:43;12.80;;;5.40;;
3939;SDS011;1984;48.312;9.244;2023-07-29T01:14:28;6.80;;;5.83;;
3939;SDS011;1984;48.312;9.244;2023-07-29T01:17:03;4.90;;;4.40;;
3939;SDS011;1984;48.312;9.244;2023-07-29T01:22:30;7.70;;;5.53;;
3939;SDS011;1984;48.312;9.244;2023-07-29T01:24:58;6.90;;;5.50;;
3939;SDS011;1984;48.312;9.244;2023-07-29T01:27:24;6.30;;;4.80;;
3939;SDS011;1984;48.312;9.244;2023-07-29T01:29:50;5.90;;;5.07;;
3939;SDS011;1984;48.312;9.244;2023-07-29T01:32:34;5.40;;;4.90;;
3939;SDS011;1984;48.312;9.244;2023-07-29T01:35:20;5.97;;;4.97;;
3939;SDS011;1984;48.312;9.244;2023-07-29T01:37:51;7.17;;;5.30;;
3939;SDS011;1984;48.312;9.244;2023-07-29T01:40:21;6.27;;;4.90;;
3939;SDS011;1984;48.312;9.244;2023-07-29T01:42:49;7.43;;;4.70;;
3939;SDS011;1984;48.312;9.244;2023-07-29T01:45:15;6.00;;;5.40;;
3939;SDS011;1984;48.312;9.244;2023-07-29T01:47:41;5.50;;;4.90;;
3939;SDS011;1984;48.312;9.244;2023-07-29T01:50:07;5.30;;;4.67;;
3939;SDS011;1984;48.312;9.244;2023-07-29T01:52:33;8.40;;;5.50;;
3939;SDS011;1984;48.312;9.244;2023-07-29T01:54:58;8.07;;;5.27;;
3939;SDS011;1984;48.312;9.244;2023-07-29T01:57:24;5.50;;;4.60;;
3939;SDS011;1984;48.312;9.244;2023-07-29T01:59:49;5.13;;;4.63;;
3939;SDS011;1984;48.312;9.244;2023-07-29T02:02:15;7.80;;;4.77;;
3939;SDS011;1984;48.312;9.244;2023-07-29T02:04:41;5.97;;;4.70;;
3939;SDS011;1984;48.312;9.244;2023-07-29T02:07:06;6.27;;;4.80;;
3939;SDS011;1984;48.312;9.244;2023-07-29T02:09:32;8.40;;;4.93;;
3939;SDS011;1984;48.312;9.244;2023-07-29T02:11:57;5.60;;;4.77;;
3939;SDS011;1984;48.312;9.244;2023-07-29T02:14:23;7.07;;;5.27;;
3939;SDS011;1984;48.312;9.244;2023-07-29T02:16:48;6.60;;;5.43;;
3939;SDS011;1984;48.312;9.244;2023-07-29T02:19:15;10.40;;;6.07;;
3939;SDS011;1984;48.312;9.244;2023-07-29T02:21:40;6.90;;;5.17;;
3939;SDS011;1984;48.312;9.244;2023-07-29T02:24:06;12.37;;;5.43;;
3939;SDS011;1984;48.312;9.244;2023-07-29T02:26:31;6.67;;;5.37;;
3939;SDS011;1984;48.312;9.244;2023-07-29T02:28:57;6.70;;;5.10;;
3939;SDS011;1984;48.312;9.244;2023-07-29T02:31:23;5.73;;;5.13;;
3939;SDS011;1984;48.312;9.244;2023-07-29T02:33:50;12.53;;;5.07;;
3939;SDS011;1984;48.312;9.244;2023-07-29T02:36:16;8.50;;;5.40;;
3939;SDS011;1984;48.312;9.244;2023-07-29T02:38:41;9.10;;;5.80;;
3939;SDS011;1984;48.312;9.244;2023-07-29T02:41:08;13.80;;;5.30;;
3939;SDS011;1984;48.312;9.244;2023-07-29T02:43:35;8.03;;;5.60;;
3939;SDS011;1984;48.312;9.244;2023-07-29T02:46:01;5.47;;;4.97;;
3939;SDS011;1984;48.312;9.244;2023-07-29T02:48:27;5.37;;;4.87;;
3939;SDS011;1984;48.312;9.244;2023-07-29T02:50:53;8.20;;;5.17;;
3939;SDS011;1984;48.312;9.244;2023-07-29T02:53:19;5.40;;;4.90;;
3939;SDS011;1984;48.312;9.244;2023-07-29T02:55:45;5.03;;;4.53;;
3939;SDS011;1984;48.312;9.244;2023-07-29T02:58:10;5.80;;;4.93;;
3939;SDS011;1984;48.312;9.244;2023-07-29T03:00:36;8.77;;;5.30;;
3939;SDS011;1984;48.312;9.244;2023-07-29T03:03:01;6.50;;;5.33;;
3939;SDS011;1984;48.312;9.244;2023-07-29T03:05:27;8.13;;;4.83;;
3939;SDS011;1984;48.312;9.244;2023-07-29T03:07:53;5.13;;;4.63;;
3939;SDS011;1984;48.312;9.244;2023-07-29T03:10:18;4.83;;;4.40;;
3939;SDS011;1984;48.312;9.244;2023-07-29T03:12:45;4.30;;;3.90;;
3939;SDS011;1984;48.312;9.244;2023-07-29T03:15:11;5.07;;;3.83;;
3939;SDS011;1984;48.312;9.244;2023-07-29T03:17:37;4.40;;;3.70;;
3939;SDS011;1984;48.312;9.244;2023-07-29T03:20:02;6.00;;;3.90;;
3939;SDS011;1984;48.312;9.244;2023-07-29T03:22:28;4.33;;;3.50;;
3939;SDS011;1984;48.312;9.244;2023-07-29T03:24:54;5.47;;;4.47;;
3939;SDS011;1984;48.312;9.244;2023-07-29T03:27:19;4.37;;;3.97;;
3939;SDS011;1984;48.312;9.244;2023-07-29T03:29:45;4.07;;;3.60;;
3939;SDS011;1984;48.312;9.244;2023-07-29T03:32:11;4.77;;;4.20;;
3939;SDS011;1984;48.312;9.244;2023-07-29T03:34:37;4.80;;;3.50;;
3939;SDS011;1984;48.312;9.244;2023-07-29T03:37:03;4.90;;;3.27;;
3939;SDS011;1984;48.312;9.244;2023-07-29T03:39:29;4.20;;;3.80;;
3939;SDS011;1984;48.312;9.244;2023-07-29T03:41:54;5.73;;;4.20;;
3939;SDS011;1984;48.312;9.244;2023-07-29T03:44:20;15.00;;;4.10;;
3939;SDS011;1984;48.312;9.244;2023-07-29T03:46:45;4.47;;;4.03;;
3939;SDS011;1984;48.312;9.244;2023-07-29T03:49:11;3.70;;;3.40;;
3939;SDS011;1984;48.312;9.244;2023-07-29T03:51:36;6.50;;;3.60;;
3939;SDS011;1984;48.312;9.244;2023-07-29T03:54:02;10.30;;;3.63;;
3939;SDS011;1984;48.312;9.244;2023-07-29T03:56:27;6.60;;;3.47;;
3939;SDS011;1984;48.312;9.244;2023-07-29T03:58:53;4.43;;;4.00;;
3939;SDS011;1984;48.312;9.244;2023-07-29T04:01:26;3.80;;;3.50;;
3939;SDS011;1984;48.312;9.244;2023-07-29T04:03:52;3.77;;;3.47;;
3939;SDS011;1984;48.312;9.244;2023-07-29T04:06:17;5.10;;;3.53;;
3939;SDS011;1984;48.312;9.244;2023-07-29T04:08:43;4.07;;;3.70;;
3939;SDS011;1984;48.312;9.244;2023-07-29T04:11:08;5.70;;;3.30;;
3939;SDS011;1984;48.312;9.244;2023-07-29T04:13:34;4.30;;;3.90;;
3939;SDS011;1984;48.312;9.244;2023-07-29T04:16:00;5.17;;;4.17;;
3939;SDS011;1984;48.312;9.244;2023-07-29T04:18:25;4.63;;;3.23;;
3939;SDS011;1984;48.312;9.244;2023-07-29T04:20:51;3.57;;;3.27;;
3939;SDS011;1984;48.312;9.244;2023-07-29T04:23:16;3.03;;;2.80;;
3939;SDS011;1984;48.312;9.244;2023-07-29T04:25:42;4.00;;;3.60;;
3939;SDS011;1984;48.312;9.244;2023-07-29T04:28:07;3.47;;;3.17;;
3939;SDS011;1984;48.312;9.244;2023-07-29T04:30:33;5.50;;;3.70;;
3939;SDS011;1984;48.312;9.244;2023-07-29T04:32:59;3.40;;;2.80;;
3939;SDS011;1984;48.312;9.244;2023-07-29T04:35:24;4.10;;;3.60;;
3939;SDS011;1984;48.312;9.244;2023-07-29T04:37:50;4.83;;;3.70;;
3939;SDS011;1984;48.312;9.244;2023-07-29T04:40:15;4.30;;;3.90;;
3939;SDS011;1984;48.312;9.244;2023-07-29T04:42:41;5.70;;;3.60;;
3939;SDS011;1984;48.312;9.244;2023-07-29T04:45:06;3.60;;;3.30;;
3939;SDS011;1984;48.312;9.244;2023-07-29T04:47:32;6.73;;;4.33;;
3939;SDS011;1984;48.312;9.244;2023-07-29T04:49:57;4.20;;;3.80;;
3939;SDS011;1984;48.312;9.244;2023-07-29T04:52:23;3.90;;;3.50;;
3939;SDS011;1984;48.312;9.244;2023-07-29T04:54:48;5.63;;;3.77;;
3939;SDS011;1984;48.312;9.244;2023-07-29T04:57:14;4.20;;;3.70;;
3939;SDS011;1984;48.312;9.244;2023-07-29T04:59:40;4.10;;;3.30;;
3939;SDS011;1984;48.312;9.244;2023-07-29T05:02:05;6.90;;;3.30;;
3939;SDS011;1984;48.312;9.244;2023-07-29T05:04:31;4.50;;;3.37;;
3939;SDS011;1984;48.312;9.244;2023-07-29T05:06:56;4.20;;;3.60;;
3939;SDS011;1984;48.312;9.244;2023-07-29T05:09:22;4.30;;;3.40;;
3939;SDS011;1984;48.312;9.244;2023-07-29T05:11:47;2.97;;;2.77;;
3939;SDS011;1984;48.312;9.244;2023-07-29T05:14:14;5.30;;;3.33;;
3939;SDS011;1984;48.312;9.244;2023-07-29T05:16:40;5.03;;;3.13;;
3939;SDS011;1984;48.312;9.244;2023-07-29T05:19:05;3.60;;;3.30;;
3939;SDS011;1984;48.312;9.244;2023-07-29T05:21:31;3.40;;;3.10;;
3939;SDS011;1984;48.312;9.244;2023-07-29T05:23:56;13.00;;;3.00;;
3939;SDS011;1984;48.312;9.244;2023-07-29T05:26:22;3.63;;;3.33;;
3939;SDS011;1984;48.312;9.244;2023-07-29T05:28:48;6.17;;;4.53;;
3939;SDS011;1984;48.312;9.244;2023-07-29T05:31:14;5.63;;;3.67;;
3939;SDS011;1984;48.312;9.244;2023-07-29T05:33:39;3.63;;;3.23;;
3939;SDS011;1984;48.312;9.244;2023-07-29T05:36:05;6.77;;;3.87;;
3939;SDS011;1984;48.312;9.244;2023-07-29T05:38:30;3.77;;;3.47;;
3939;SDS011;1984;48.312;9.244;2023-07-29T05:40:56;4.60;;;4.20;;
3939;SDS011;1984;48.312;9.244;2023-07-29T05:43:23;8.57;;;3.10;;
3939;SDS011;1984;48.312;9.244;2023-07-29T05:45:49;4.63;;;3.63;;
3939;SDS011;1984;48.312;9.244;2023-07-29T05:48:15;3.80;;;3.30;;
3939;SDS011;1984;48.312;9.244;2023-07-29T05:50:41;5.93;;;4.23;;
3939;SDS011;1984;48.312;9.244;2023-07-29T05:53:07;6.33;;;4.63;;
3939;SDS011;1984;48.312;9.244;2023-07-29T05:55:32;4.73;;;3.70;;
3939;SDS011;1984;48.312;9.244;2023-07-29T05:57:58;5.43;;;3.90;;
3939;SDS011;1984;48.312;9.244;2023-07-29T06:00:23;4.93;;;4.00;;
3939;SDS011;1984;48.312;9.244;2023-07-29T06:02:49;5.20;;;3.40;;
3939;SDS011;1984;48.312;9.244;2023-07-29T06:05:14;4.90;;;3.40;;
3939;SDS011;1984;48.312;9.244;2023-07-29T06:07:40;13.23;;;3.60;;
3939;SDS011;1984;48.312;9.244;2023-07-29T06:10:09;3.50;;;2.90;;
3939;SDS011;1984;48.312;9.244;2023-07-29T06:12:38;3.10;;;2.73;;
3939;SDS011;1984;48.312;9.244;2023-07-29T06:15:04;3.13;;;2.57;;
3939;SDS011;1984;48.312;9.244;2023-07-29T06:17:30;3.57;;;3.00;;
3939;SDS011;1984;48.312;9.244;2023-07-29T06:19:56;4.20;;;2.90;;
3939;SDS011;1984;48.312;9.244;2023-07-29T06:22:21;4.00;;;3.30;;
3939;SDS011;1984;48.312;9.244;2023-07-29T06:24:47;3.50;;;2.50;;
3939;SDS011;1984;48.312;9.244;2023-07-29T06:27:12;4.30;;;3.40;;
3939;SDS011;1984;48.312;9.244;2023-07-29T06:29:38;4.63;;;2.93;;
3939;SDS011;1984;48.312;9.244;2023-07-29T06:32:03;4.53;;;3.00;;
3939;SDS011;1984;48.312;9.244;2023-07-29T06:34:30;8.27;;;3.53;;
3939;SDS011;1984;48.312;9.244;2023-07-29T06:36:56;3.30;;;3.00;;
3939;SDS011;1984;48.312;9.244;2023-07-29T06:39:22;4.43;;;3.87;;
3939;SDS011;1984;48.312;9.244;2023-07-29T06:41:47;5.03;;;4.13;;
3939;SDS011;1984;48.312;9.244;2023-07-29T06:44:13;5.97;;;3.50;;
3939;SDS011;1984;48.312;9.244;2023-07-29T06:46:38;7.80;;;3.93;;
3939;SDS011;1984;48.312;9.244;2023-07-29T06:49:05;15.20;;;4.10;;
3939;SDS011;1984;48.312;9.244;2023-07-29T06:51:30;4.40;;;3.40;;
3939;SDS011;1984;48.312;9.244;2023-07-29T06:53:59;3.30;;;2.90;;
3939;SDS011;1984;48.312;9.244;2023-07-29T06:56:25;4.90;;;2.77;;
3939;SDS011;1984;48.312;9.244;2023-07-29T06:58:50;3.77;;;3.33;;
3939;SDS011;1984;48.312;9.244;2023-07-29T07:01:16;3.90;;;3.30;;
3939;SDS011;1984;48.312;9.244;2023-07-29T07:03:41;4.80;;;2.57;;
3939;SDS011;1984;48.312;9.244;2023-07-29T07:06:07;7.33;;;4.20;;
3939;SDS011;1984;48.312;9.244;2023-07-29T07:08:33;4.27;;;2.90;;
3939;SDS011;1984;48.312;9.244;2023-07-29T07:10:58;4.57;;;3.50;;
3939;SDS011;1984;48.312;9.244;2023-07-29T07:13:24;3.20;;;2.90;;
3939;SDS011;1984;48.312;9.244;2023-07-29T07:15:49;5.90;;;2.67;;
3939;SDS011;1984;48.312;9.244;2023-07-29T07:18:15;5.10;;;2.83;;
3939;SDS011;1984;48.312;9.244;2023-07-29T07:20:40;3.03;;;2.73;;
3939;SDS011;1984;48.312;9.244;2023-07-29T07:23:06;4.03;;;2.80;;
3939;SDS011;1984;48.312;9.244;2023-07-29T07:25:35;2.47;;;2.27;;
3939;SDS011;1984;48.312;9.244;2023-07-29T07:28:01;2.70;;;1.77;;
3939;SDS011;1984;48.312;9.244;2023-07-29T07:30:26;2.10;;;1.47;;
3939;SDS011;1984;48.312;9.244;2023-07-29T07:32:52;1.80;;;1.13;;
3939;SDS011;1984;48.312;9.244;2023-07-29T07:35:17;1.57;;;1.47;;
3939;SDS011;1984;48.312;9.244;2023-07-29T07:37:43;1.30;;;1.13;;
3939;SDS011;1984;48.312;9.244;2023-07-29T07:40:09;5.70;;;1.27;;
3939;SDS011;1984;48.312;9.244;2023-07-29T07:42:35;2.33;;;1.10;;
3939;SDS011;1984;48.312;9.244;2023-07-29T07:45:00;3.60;;;1.30;;
3939;SDS011;1984;48.312;9.244;2023-07-29T07:47:26;1.63;;;1.30;;
3939;SDS011;1984;48.312;9.244;2023-07-29T07:49:51;1.10;;;0.93;;
3939;SDS011;1984;48.312;9.244;2023-07-29T07:52:17;1.57;;;1.40;;
3939;SDS011;1984;48.312;9.244;2023-07-29T07:54:42;1.30;;;1.20;;
3939;SDS011;1984;48.312;9.244;2023-07-29T07:57:08;6.37;;;1.30;;
3939;SDS011;1984;48.312;9.244;2023-07-29T07:59:33;7.10;;;1.30;;
3939;SDS011;1984;48.312;9.244;2023-07-29T08:01:59;4.10;;;1.20;;
3939;SDS011;1984;48.312;9.244;2023-07-29T08:04:24;1.80;;;1.17;;
3939;SDS011;1984;48.312;9.244;2023-07-29T08:06:50;3.20;;;1.60;;
3939;SDS011;1984;48.312;9.244;2023-07-29T08:09:15;1.40;;;1.30;;
3939;SDS011;1984;48.312;9.244;2023-07-29T08:11:41;3.30;;;1.00;;
3939;SDS011;1984;48.312;9.244;2023-07-29T08:14:06;2.40;;;1.30;;
3939;SDS011;1984;48.312;9.244;2023-07-29T08:16:32;5.13;;;2.57;;
3939;SDS011;1984;48.312;9.244;2023-07-29T08:18:57;2.73;;;2.20;;
3939;SDS011;1984;48.312;9.244;2023-07-29T08:21:23;3.10;;;1.90;;
3939;SDS011;1984;48.312;9.244;2023-07-29T08:23:48;1.93;;;1.20;;
3939;SDS011;1984;48.312;9.244;2023-07-29T08:26:14;1.30;;;1.20;;
3939;SDS011;1984;48.312;9.244;2023-07-29T08:28:40;1.77;;;1.40;;
3939;SDS011;1984;48.312;9.244;2023-07-29T08:31:05;2.10;;;1.53;;
3939;SDS011;1984;48.312;9.244;2023-07-29T08:33:31;1.63;;;1.40;;
3939;SDS011;1984;48.312;9.244;2023-07-29T08:36:01;1.47;;;1.37;;
3939;SDS011;1984;48.312;9.244;2023-07-29T08:38:27;3.40;;;1.90;;
3939;SDS011;1984;48.312;9.244;2023-07-29T08:40:54;3.37;;;1.70;;
3939;SDS011;1984;48.312;9.244;2023-07-29T08:43:22;2.13;;;1.80;;
3939;SDS011;1984;48.312;9.244;2023-07-29T08:45:54;2.30;;;2.20;;
3939;SDS011;1984;48.312;9.244;2023-07-29T08:48:22;2.10;;;2.00;;
3939;SDS011;1984;48.312;9.244;2023-07-29T08:50:54;3.53;;;2.00;;
3939;SDS011;1984;48.312;9.244;2023-07-29T08:53:20;1.43;;;1.33;;
3939;SDS011;1984;48.312;9.244;2023-07-29T08:55:46;3.80;;;1.83;;
3939;SDS011;1984;48.312;9.244;2023-07-29T08:58:12;2.30;;;2.03;;
3939;SDS011;1984;48.312;9.244;2023-07-29T09:00:38;1.90;;;1.50;;
3939;SDS011;1984;48.312;9.244;2023-07-29T09:03:05;5.43;;;1.90;;
3939;SDS011;1984;48.312;9.244;2023-07-29T09:05:33;3.53;;;1.80;;
3939;SDS011;1984;48.312;9.244;2023-07-29T09:07:59;1.70;;;1.60;;
3939;SDS011;1984;48.312;9.244;2023-07-29T09:10:27;1.57;;;1.47;;
3939;SDS011;1984;48.312;9.244;2023-07-29T09:12:53;1.57;;;1.47;;
3939;SDS011;1984;48.312;9.244;2023-07-29T09:15:28;4.60;;;1.40;;
3939;SDS011;1984;48.312;9.244;2023-07-29T09:17:55;2.23;;;2.07;;
3939;SDS011;1984;48.312;9.244;2023-07-29T09:20:26;2.37;;;1.80;;
3939;SDS011;1984;48.312;9.244;2023-07-29T09:22:55;1.90;;;1.80;;
3939;SDS011;1984;48.312;9.244;2023-07-29T09:25:25;2.40;;;1.60;;
3939;SDS011;1984;48.312;9.244;2023-07-29T09:27:52;2.33;;;2.03;;
3939;SDS011;1984;48.312;9.244;2023-07-29T09:30:23;2.30;;;2.10;;
3939;SDS011;1984;48.312;9.244;2023-07-29T09:32:52;2.30;;;2.10;;
3939;SDS011;1984;48.312;9.244;2023-07-29T09:35:20;1.83;;;1.73;;
3939;SDS011;1984;48.312;9.244;2023-07-29T09:37:46;2.10;;;1.90;;
3939;SDS011;1984;48.312;9.244;2023-07-29T09:40:13;2.33;;;1.93;;
3939;SDS011;1984;48.312;9.244;2023-07-29T09:42:40;2.33;;;2.13;;
3939;SDS011;1984;48.312;9.244;2023-07-29T09:45:19;2.67;;;2.13;;
3939;SDS011;1984;48.312;9.244;2023-07-29T09:47:49;14.40;;;1.90;;
3939;SDS011;1984;48.312;9.244;2023-07-29T09:50:15;3.33;;;2.20;;
3939;SDS011;1984;48.312;9.244;2023-07-29T09:52:41;3.47;;;2.03;;
3939;SDS011;1984;48.312;9.244;2023-07-29T09:55:07;4.23;;;2.83;;
3939;SDS011;1984;48.312;9.244;2023-07-29T09:57:35;3.73;;;2.50;;
3939;SDS011;1984;48.312;9.244;2023-07-29T10:00:03;3.50;;;2.50;;
3939;SDS011;1984;48.312;9.244;2023-07-29T10:02:35;5.33;;;2.10;;
3939;SDS011;1984;48.312;9.244;2023-07-29T10:05:05;2.30;;;2.10;;
3939;SDS011;1984;48.312;9.244;2023-07-29T10:07:32;3.00;;;2.27;;
3939;SDS011;1984;48.312;9.244;2023-07-29T10:09:59;3.90;;;3.10;;
3939;SDS011;1984;48.312;9.244;2023-07-29T10:12:26;3.57;;;2.90;;
3939;SDS011;1984;48.312;9.244;2023-07-29T10:14:53;4.93;;;3.03;;
3939;SDS011;1984;48.312;9.244;2023-07-29T10:17:20;3.80;;;2.73;;
3939;SDS011;1984;48.312;9.244;2023-07-29T10:19:46;2.40;;;2.20;;
3939;SDS011;1984;48.312;9.244;2023-07-29T10:22:12;2.57;;;2.10;;
3939;SDS011;1984;48.312;9.244;2023-07-29T10:24:40;2.87;;;2.10;;
3939;SDS011;1984;48.312;9.244;2023-07-29T10:27:07;2.40;;;2.10;;
3939;SDS011;1984;48.312;9.244;2023-07-29T10:29:39;2.03;;;1.77;;
3939;SDS011;1984;48.312;9.244;2023-07-29T10:32:08;3.73;;;2.50;;
3939;SDS011;1984;48.312;9.244;2023-07-29T10:34:36;3.37;;;2.50;;
3939;SDS011;1984;48.312;9.244;2023-07-29T10:37:03;2.40;;;2.07;;
3939;SDS011;1984;48.312;9.244;2023-07-29T10:39:37;2.43;;;1.83;;
3939;SDS011;1984;48.312;9.244;2023-07-29T10:42:05;1.90;;;1.80;;
3939;SDS011;1984;48.312;9.244;2023-07-29T10:47:14;1.90;;;1.80;;
3939;SDS011;1984;48.312;9.244;2023-07-29T10:49:49;2.07;;;1.63;;
3939;SDS011;1984;48.312;9.244;2023-07-29T10:52:17;2.97;;;2.13;;
3939;SDS011;1984;48.312;9.244;2023-07-29T10:55:02;2.13;;;2.03;;
3939;SDS011;1984;48.312;9.244;2023-07-29T10:57:44;2.17;;;2.07;;
3939;SDS011;1984;48.312;9.244;2023-07-29T11:00:10;2.10;;;2.00;;
3939;SDS011;1984;48.312;9.244;2023-07-29T11:02:40;1.90;;;1.70;;
3939;SDS011;1984;48.312;9.244;2023-07-29T11:05:27;1.80;;;1.70;;
3939;SDS011;1984;48.312;9.244;2023-07-29T11:07:51;1.30;;;1.30;;
3939;SDS011;1984;48.312;9.244;2023-07-29T11:10:17;1.87;;;1.40;;
3939;SDS011;1984;48.312;9.244;2023-07-29T11:12:43;3.50;;;2.20;;
3939;SDS011;1984;48.312;9.244;2023-07-29T11:20:18;3.93;;;2.43;;
3939;SDS011;1984;48.312;9.244;2023-07-29T11:22:45;3.00;;;2.03;;
3939;SDS011;1984;48.312;9.244;2023-07-29T11:25:12;2.40;;;2.20;;
3939;SDS011;1984;48.312;9.244;2023-07-29T11:27:40;15.47;;;1.57;;
3939;SDS011;1984;48.312;9.244;2023-07-29T11:30:07;2.27;;;1.90;;
3939;SDS011;1984;48.312;9.244;2023-07-29T11:32:34;4.37;;;2.00;;
3939;SDS011;1984;48.312;9.244;2023-07-29T11:37:50;1.70;;;1.60;;
3939;SDS011;1984;48.312;9.244;2023-07-29T11:40:21;1.83;;;1.73;;
3939;SDS011;1984;48.312;9.244;2023-07-29T11:42:47;1.73;;;1.63;;
3939;SDS011;1984;48.312;9.244;2023-07-29T11:45:16;1.83;;;1.73;;
3939;SDS011;1984;48.312;9.244;2023-07-29T11:47:42;2.20;;;1.97;;
3939;SDS011;1984;48.312;9.244;2023-07-29T11:50:09;2.03;;;1.60;;
3939;SDS011;1984;48.312;9.244;2023-07-29T11:52:36;3.23;;;1.70;;
3939;SDS011;1984;48.312;9.244;2023-07-29T11:55:02;1.83;;;1.73;;
3939;SDS011;1984;48.312;9.244;2023-07-29T11:57:30;1.80;;;1.70;;
3939;SDS011;1984;48.312;9.244;2023-07-29T11:59:56;1.60;;;1.50;;
3939;SDS011;1984;48.312;9.244;2023-07-29T12:02:23;2.67;;;1.63;;
3939;SDS011;1984;48.312;9.244;2023-07-29T12:04:50;1.87;;;1.63;;
3939;SDS011;1984;48.312;9.244;2023-07-29T12:07:17;2.13;;;1.90;;
3939;SDS011;1984;48.312;9.244;2023-07-29T12:09:43;2.23;;;2.13;;
3939;SDS011;1984;48.312;9.244;2023-07-29T12:12:10;2.70;;;2.37;;
3939;SDS011;1984;48.312;9.244;2023-07-29T12:14:36;2.97;;;1.80;;
3939;SDS011;1984;48.312;9.244;2023-07-29T12:17:02;1.70;;;1.50;;
3939;SDS011;1984;48.312;9.244;2023-07-29T12:19:35;3.77;;;2.40;;
3939;SDS011;1984;48.312;9.244;2023-07-29T12:22:03;3.30;;;1.97;;
3939;SDS011;1984;48.312;9.244;2023-07-29T12:24:30;1.83;;;1.73;;
3939;SDS011;1984;48.312;9.244;2023-07-29T12:26:57;1.90;;;1.80;;
3939;SDS011;1984;48.312;9.244;2023-07-29T12:29:22;2.33;;;2.13;;
3939;SDS011;1984;48.312;9.244;2023-07-29T12:31:48;2.00;;;1.90;;
3939;SDS011;1984;48.312;9.244;2023-07-29T12:34:21;4.17;;;1.93;;
3939;SDS011;1984;48.312;9.244;2023-07-29T12:36:48;2.50;;;1.70;;
3939;SDS011;1984;48.312;9.244;2023-07-29T12:39:18;5.07;;;1.70;;
3939;SDS011;1984;48.312;9.244;2023-07-29T12:41:44;1.70;;;1.60;;
3939;SDS011;1984;48.312;9.244;2023-07-29T12:44:10;1.83;;;1.73;;
3939;SDS011;1984;48.312;9.244;2023-07-29T12:46:36;1.70;;;1.60;;
3939;SDS011;1984;48.312;9.244;2023-07-29T12:49:01;1.87;;;1.77;;
3939;SDS011;1984;48.312;9.244;2023-07-29T12:51:27;1.60;;;1.50;;
3939;SDS011;1984;48.312;9.244;2023-07-29T12:53:53;1.60;;;1.50;;
3939;SDS011;1984;48.312;9.244;2023-07-29T12:56:19;5.43;;;2.40;;
3939;SDS011;1984;48.312;9.244;2023-07-29T12:58:44;1.80;;;1.70;;
3939;SDS011;1984;48.312;9.244;2023-07-29T13:01:10;2.70;;;1.83;;
3939;SDS011;1984;48.312;9.244;2023-07-29T13:03:41;3.43;;;2.00;;
3939;SDS011;1984;48.312;9.244;2023-07-29T13:06:07;1.90;;;1.70;;
3939;SDS011;1984;48.312;9.244;2023-07-29T13:08:33;2.47;;;1.83;;
3939;SDS011;1984;48.312;9.244;2023-07-29T13:10:58;1.60;;;1.50;;
3939;SDS011;1984;48.312;9.244;2023-07-29T13:13:25;2.60;;;1.97;;
3939;SDS011;1984;48.312;9.244;2023-07-29T13:15:50;1.70;;;1.60;;
3939;SDS011;1984;48.312;9.244;2023-07-29T13:18:16;2.23;;;1.90;;
3939;SDS011;1984;48.312;9.244;2023-07-29T13:20:42;3.37;;;2.13;;
3939;SDS011;1984;48.312;9.244;2023-07-29T13:23:07;2.50;;;2.30;;
3939;SDS011;1984;48.312;9.244;2023-07-29T13:25:33;2.27;;;2.07;;
3939;SDS011;1984;48.312;9.244;2023-07-29T13:27:58;2.07;;;1.87;;
3939;SDS011;1984;48.312;9.244;2023-07-29T13:30:24;3.53;;;2.13;;
3939;SDS011;1984;48.312;9.244;2023-07-29T13:32:49;1.80;;;1.70;;
3939;SDS011;1984;48.312;9.244;2023-07-29T13:35:14;1.97;;;1.87;;
3939;SDS011;1984;48.312;9.244;2023-07-29T13:37:40;2.30;;;2.00;;
3939;SDS011;1984;48.312;9.244;2023-07-29T13:40:06;2.23;;;2.13;;
3939;SDS011;1984;48.312;9.244;2023-07-29T13:42:32;1.80;;;1.70;;
3939;SDS011;1984;48.312;9.244;2023-07-29T13:44:57;2.10;;;1.90;;
3939;SDS011;1984;48.312;9.244;2023-07-29T13:47:23;4.00;;;2.23;;
3939;SDS011;1984;48.312;9.244;2023-07-29T13:49:48;4.83;;;2.00;;
3939;SDS011;1984;48.312;9.244;2023-07-29T13:52:14;2.63;;;2.10;;
3939;SDS011;1984;48.312;9.244;2023-07-29T13:54:40;1.93;;;1.80;;
3939;SDS011;1984;48.312;9.244;2023-07-29T13:57:05;2.43;;;2.23;;
3939;SDS011;1984;48.312;9.244;2023-07-29T13:59:31;2.60;;;2.40;;
3939;SDS011;1984;48.312;9.244;2023-07-29T14:01:57;2.70;;;2.50;;
3939;SDS011;1984;48.312;9.244;2023-07-29T14:04:23;3.70;;;1.90;;
3939;SDS011;1984;48.312;9.244;2023-07-29T14:06:48;1.90;;;1.80;;
3939;SDS011;1984;48.312;9.244;2023-07-29T14:09:14;4.13;;;2.30;;
3939;SDS011;1984;48.312;9.244;2023-07-29T14:11:39;2.07;;;1.97;;
3939;SDS011;1984;48.312;9.244;2023-07-29T14:14:05;2.10;;;1.90;;
3939;SDS011;1984;48.312;9.244;2023-07-29T14:16:31;2.13;;;1.97;;
3939;SDS011;1984;48.312;9.244;2023-07-29T14:18:57;5.70;;;1.73;;
3939;SDS011;1984;48.312;9.244;2023-07-29T14:21:22;2.33;;;1.80;;
3939;SDS011;1984;48.312;9.244;2023-07-29T14:23:48;7.50;;;2.13;;
3939;SDS011;1984;48.312;9.244;2023-07-29T14:26:13;2.63;;;2.17;;
3939;SDS011;1984;48.312;9.244;2023-07-29T14:28:39;1.90;;;1.70;;
3939;SDS011;1984;48.312;9.244;2023-07-29T14:31:04;3.47;;;2.37;;
3939;SDS011;1984;48.312;9.244;2023-07-29T14:33:30;7.30;;;1.90;;
3939;SDS011;1984;48.312;9.244;2023-07-29T14:35:56;2.23;;;1.93;;
3939;SDS011;1984;48.312;9.244;2023-07-29T14:38:21;1.67;;;1.57;;
3939;SDS011;1984;48.312;9.244;2023-07-29T14:40:47;1.90;;;1.80;;
3939;SDS011;1984;48.312;9.244;2023-07-29T14:43:13;2.33;;;2.20;;
3939;SDS011;1984;48.312;9.244;2023-07-29T14:45:38;2.93;;;2.20;;
3939;SDS011;1984;48.312;9.244;2023-07-29T14:48:05;8.47;;;3.00;;
3939;SDS011;1984;48.312;9.244;2023-07-29T14:50:31;5.60;;;2.80;;
3939;SDS011;1984;48.312;9.244;2023-07-29T14:52:56;4.10;;;2.20;;
3939;SDS011;1984;48.312;9.244;2023-07-29T14:55:22;1.67;;;1.00;;
3939;SDS011;1984;48.312;9.244;2023-07-29T14:57:47;3.97;;;1.40;;
3939;SDS011;1984;48.312;9.244;2023-07-29T15:00:13;4.13;;;1.57;;
3939;SDS011;1984;48.312;9.244;2023-07-29T15:02:39;3.13;;;2.30;;
3939;SDS011;1984;48.312;9.244;2023-07-29T15:05:05;7.57;;;1.77;;
3939;SDS011;1984;48.312;9.244;2023-07-29T15:07:31;2.03;;;1.93;;
3939;SDS011;1984;48.312;9.244;2023-07-29T15:09:56;1.80;;;1.70;;
3939;SDS011;1984;48.312;9.244;2023-07-29T15:12:22;2.37;;;1.90;;
3939;SDS011;1984;48.312;9.244;2023-07-29T15:14:48;5.63;;;1.90;;
3939;SDS011;1984;48.312;9.244;2023-07-29T15:17:14;2.13;;;2.03;;
3939;SDS011;1984;48.312;9.244;2023-07-29T15:19:39;2.03;;;1.87;;
3939;SDS011;1984;48.312;9.244;2023-07-29T15:22:05;3.73;;;2.30;;
3939;SDS011;1984;48.312;9.244;2023-07-29T15:24:30;6.70;;;1.90;;
3939;SDS011;1984;48.312;9.244;2023-07-29T15:26:56;3.30;;;2.40;;